createdAt,value
2019-06-20T00:02:55.103Z,0
2019-06-20T00:03:35.576Z,0
2019-06-20T00:04:16.042Z,0
2019-06-20T00:04:56.526Z,0
2019-06-20T00:05:37.015Z,0
2019-06-20T00:06:17.482Z,0
2019-06-20T00:06:57.957Z,0
2019-06-20T00:07:38.427Z,0
2019-06-20T00:08:18.947Z,0
2019-06-20T00:08:59.414Z,0
2019-06-20T00:09:39.854Z,0
2019-06-20T00:10:20.333Z,0
2019-06-20T00:17:05.225Z,0
2019-06-20T00:17:45.712Z,0
2019-06-20T00:18:26.163Z,0
2019-06-20T00:19:06.659Z,0
2019-06-20T00:19:47.129Z,0
2019-06-20T00:20:27.600Z,0
2019-06-20T00:21:08.087Z,0
2019-06-20T00:21:48.600Z,0
2019-06-20T00:22:29.064Z,0
2019-06-20T00:23:09.541Z,0
2019-06-20T00:23:50.054Z,0
2019-06-20T00:30:34.985Z,0
2019-06-20T00:31:15.491Z,0
2019-06-20T00:31:55.975Z,0
2019-06-20T00:32:36.437Z,0
2019-06-20T00:33:16.906Z,0
2019-06-20T00:33:57.388Z,0
2019-06-20T00:34:37.883Z,0
2019-06-20T00:35:18.373Z,0
2019-06-20T00:35:58.841Z,0
2019-06-20T00:36:39.318Z,0
2019-06-20T00:37:19.793Z,0
2019-06-20T00:38:00.285Z,0
2019-06-20T00:44:45.134Z,0
2019-06-20T00:45:25.739Z,0
2019-06-20T00:46:06.076Z,0
2019-06-20T00:46:46.547Z,0
2019-06-20T00:47:27.022Z,0
2019-06-20T00:48:07.536Z,0
2019-06-20T00:48:47.990Z,0
2019-06-20T00:49:28.463Z,0
2019-06-20T00:50:08.930Z,0
2019-06-20T00:50:49.416Z,0
2019-06-20T00:51:29.947Z,0
2019-06-20T00:52:10.363Z,0
2019-06-20T00:56:57.753Z,0
2019-06-20T00:57:40.301Z,0
2019-06-20T01:01:05.397Z,0
2019-06-20T01:01:47.862Z,0
2019-06-20T01:02:28.323Z,0
2019-06-20T01:03:08.958Z,0
2019-06-20T01:03:49.479Z,0
2019-06-20T01:04:30.432Z,0
2019-06-20T01:07:17.672Z,0
2019-06-20T01:08:02.614Z,0
2019-06-20T01:09:29.662Z,0
2019-06-20T01:10:11.074Z,0
2019-06-20T01:13:38.609Z,0
2019-06-20T01:14:23.073Z,0
2019-06-20T01:17:05.338Z,0
2019-06-20T01:17:48.257Z,0
2019-06-20T01:18:29.693Z,0
2019-06-20T01:25:55.064Z,0
2019-06-20T01:26:35.531Z,0
2019-06-20T01:27:17.016Z,0
2019-06-20T01:27:57.461Z,0
2019-06-20T01:28:37.916Z,0
2019-06-20T01:29:20.877Z,0
2019-06-20T01:33:25.418Z,0
2019-06-20T01:34:05.873Z,0
2019-06-20T01:34:46.341Z,0
2019-06-20T01:35:26.789Z,0
2019-06-20T01:36:07.261Z,0
2019-06-20T01:36:49.900Z,0
2019-06-20T01:38:55.899Z,0
2019-06-20T01:39:38.618Z,0
2019-06-20T01:41:46.120Z,0
2019-06-20T01:42:26.584Z,0
2019-06-20T01:43:07.100Z,0
2019-06-20T01:43:50.751Z,0
2019-06-20T01:44:28.926Z,0
2019-06-20T01:59:51.388Z,0
2019-06-20T02:00:37.874Z,0
2019-06-20T02:01:20.686Z,0
2019-06-20T02:02:05.045Z,0
2019-06-20T02:02:43.759Z,0
2019-06-20T02:03:24.315Z,0
2019-06-20T02:04:04.736Z,0
2019-06-20T02:04:45.528Z,0
2019-06-20T02:05:25.723Z,0
2019-06-20T02:07:31.798Z,0
2019-06-20T02:08:13.507Z,0
2019-06-20T02:08:54.046Z,0
2019-06-20T02:09:35.331Z,0
2019-06-20T02:10:15.874Z,0
2019-06-20T02:10:56.351Z,0
2019-06-20T02:11:39.562Z,0
2019-06-20T02:13:42.828Z,0
2019-06-20T02:14:25.049Z,0
2019-06-20T02:15:05.550Z,0
2019-06-20T02:16:27.418Z,0
2019-06-20T02:21:15.069Z,0
2019-06-20T02:21:55.389Z,0
2019-06-20T02:22:35.930Z,0
2019-06-20T02:23:17.324Z,0
2019-06-20T02:28:02.383Z,0
2019-06-20T02:32:12.464Z,0
2019-06-20T02:32:52.968Z,0
2019-06-20T02:33:33.498Z,0
2019-06-20T02:34:13.924Z,0
2019-06-20T02:34:56.324Z,0
2019-06-20T02:41:13.931Z,0
2019-06-20T02:41:54.270Z,0
2019-06-20T02:42:36.853Z,0
2019-06-20T02:43:17.266Z,0
2019-06-20T02:43:57.975Z,0
2019-06-20T02:44:38.782Z,0
2019-06-20T02:50:43.240Z,0
2019-06-20T02:51:23.660Z,0
2019-06-20T02:52:04.200Z,4
2019-06-20T02:52:44.667Z,4
2019-06-20T02:53:25.089Z,4
2019-06-20T02:54:05.648Z,8
2019-06-20T02:54:47.564Z,4
2019-06-20T02:55:28.036Z,8
2019-06-20T02:56:08.521Z,4
2019-06-20T03:02:53.228Z,12
2019-06-20T03:03:33.668Z,12
2019-06-20T03:04:14.145Z,12
2019-06-20T03:04:54.610Z,12
2019-06-20T03:05:35.092Z,8
2019-06-20T03:06:15.582Z,12
2019-06-20T03:06:56.037Z,12
2019-06-20T03:07:36.560Z,8
2019-06-20T03:08:17.006Z,8
2019-06-20T03:09:46.116Z,8
2019-06-20T03:10:26.205Z,12
2019-06-20T03:11:06.614Z,12
2019-06-20T03:11:47.162Z,12
2019-06-20T03:12:28.898Z,8
2019-06-20T03:16:34.575Z,16
2019-06-20T03:17:15.001Z,16
2019-06-20T03:17:55.436Z,12
2019-06-20T03:18:35.882Z,16
2019-06-20T03:19:16.470Z,16
2019-06-20T03:19:56.831Z,20
2019-06-20T03:20:37.313Z,20
2019-06-20T03:21:17.806Z,20
2019-06-20T03:21:58.275Z,20
2019-06-20T03:28:03.255Z,16
2019-06-20T03:28:43.725Z,20
2019-06-20T03:29:24.210Z,16
2019-06-20T03:30:04.695Z,16
2019-06-20T03:30:45.127Z,16
2019-06-20T03:31:25.592Z,16
2019-06-20T03:32:06.061Z,16
2019-06-20T03:32:46.573Z,16
2019-06-20T03:33:27.039Z,16
2019-06-20T03:34:07.502Z,16
2019-06-20T03:34:47.958Z,16
2019-06-20T03:35:28.450Z,16
2019-06-20T03:42:13.494Z,24
2019-06-20T03:42:53.958Z,24
2019-06-20T03:43:34.482Z,24
2019-06-20T03:44:14.887Z,24
2019-06-20T03:45:01.910Z,28
2019-06-20T03:45:35.852Z,28
2019-06-20T03:46:16.323Z,32
2019-06-20T03:46:56.769Z,32
2019-06-20T03:47:37.249Z,32
2019-06-20T03:48:17.845Z,32
2019-06-20T03:48:58.276Z,32
2019-06-20T03:56:23.605Z,32
2019-06-20T03:57:04.050Z,32
2019-06-20T03:57:45.479Z,36
2019-06-20T03:58:25.907Z,40
2019-06-20T03:59:06.379Z,40
2019-06-20T03:59:46.855Z,52
2019-06-20T04:00:27.327Z,56
2019-06-20T04:01:07.840Z,68
2019-06-20T04:01:49.172Z,68
2019-06-20T04:09:13.500Z,76
2019-06-20T04:09:53.967Z,76
2019-06-20T04:10:34.430Z,84
2019-06-20T04:11:56.090Z,72
2019-06-20T04:12:36.569Z,76
2019-06-20T04:13:17.066Z,80
2019-06-20T04:13:57.516Z,88
2019-06-20T04:14:38.007Z,88
2019-06-20T04:15:19.718Z,72
2019-06-20T04:22:03.406Z,80
2019-06-20T04:22:43.843Z,84
2019-06-20T04:23:24.308Z,88
2019-06-20T04:24:04.778Z,96
2019-06-20T04:24:45.255Z,92
2019-06-20T04:25:25.750Z,80
2019-06-20T04:26:06.366Z,68
2019-06-20T04:26:46.714Z,68
2019-06-20T04:27:27.202Z,68
2019-06-20T04:28:07.651Z,68
2019-06-20T05:15:52.387Z,420
2019-06-20T05:16:24.253Z,444
2019-06-20T05:17:07.073Z,508
2019-06-20T05:17:46.212Z,616
2019-06-20T05:18:27.103Z,692
2019-06-20T05:19:07.530Z,732
2019-06-20T05:19:48.325Z,756
2019-06-20T05:24:37.445Z,472
2019-06-20T05:25:19.870Z,444
2019-06-20T05:30:05.175Z,448
2019-06-20T05:30:45.637Z,448
2019-06-20T05:31:26.140Z,460
2019-06-20T05:32:06.649Z,476
2019-06-20T05:32:47.070Z,496
2019-06-20T05:33:27.613Z,516
2019-06-20T05:34:08.151Z,540
2019-06-20T05:34:48.608Z,572
2019-06-20T05:42:13.810Z,1728
2019-06-20T05:42:54.302Z,1860
2019-06-20T05:43:34.786Z,2020
2019-06-20T05:44:15.242Z,3452
2019-06-20T05:44:55.750Z,3652
2019-06-20T05:45:36.236Z,2212
2019-06-20T05:46:16.706Z,4360
2019-06-20T05:47:11.343Z,1588
2019-06-20T05:47:37.651Z,1312
2019-06-20T05:48:18.169Z,1256
2019-06-20T05:48:58.620Z,1236
2019-06-20T05:56:23.758Z,840
2019-06-20T05:57:04.729Z,816
2019-06-20T05:57:44.710Z,768
2019-06-20T05:58:25.201Z,696
2019-06-20T05:59:08.304Z,648
2019-06-20T06:01:56.214Z,476
2019-06-20T06:02:34.032Z,452
2019-06-20T06:03:14.497Z,408
2019-06-20T06:03:55.038Z,380
2019-06-20T06:04:35.452Z,368
2019-06-20T06:05:15.945Z,360
2019-06-20T06:05:56.404Z,344
2019-06-20T06:06:36.935Z,340
2019-06-20T06:07:17.374Z,348
2019-06-20T06:07:58.439Z,376
2019-06-20T06:08:38.531Z,420
2019-06-20T06:11:23.831Z,608
2019-06-20T06:12:04.425Z,640
2019-06-20T06:12:49.819Z,660
2019-06-20T06:16:53.593Z,512
2019-06-20T06:17:34.059Z,532
2019-06-20T06:18:14.521Z,532
2019-06-20T06:18:55.048Z,536
2019-06-20T06:25:44.609Z,784
2019-06-20T06:26:25.102Z,836
2019-06-20T06:27:05.566Z,844
2019-06-20T06:27:46.054Z,844
2019-06-20T06:28:26.538Z,844
2019-06-20T06:29:07.056Z,832
2019-06-20T06:29:47.501Z,812
2019-06-20T06:30:27.981Z,848
2019-06-20T06:31:08.556Z,920
2019-06-20T06:31:54.156Z,988
2019-06-20T06:34:35.668Z,1012
2019-06-20T06:35:16.126Z,1044
2019-06-20T06:35:56.604Z,1060
2019-06-20T06:36:37.081Z,1124
2019-06-20T06:37:17.554Z,1284
2019-06-20T06:38:38.508Z,1968
2019-06-20T06:39:18.973Z,2336
2019-06-20T06:39:59.446Z,2832
2019-06-20T06:40:39.915Z,3048
2019-06-20T06:41:20.459Z,2968
2019-06-20T06:48:05.379Z,11812
2019-06-20T06:48:47.154Z,9920
2019-06-20T06:52:45.380Z,18560
2019-06-20T06:53:25.528Z,14380
2019-06-20T06:54:06.014Z,13688
2019-06-20T06:54:47.451Z,16096
2019-06-20T06:55:27.937Z,21440
2019-06-20T06:56:08.094Z,18368
2019-06-20T06:56:48.498Z,17344
2019-06-20T06:57:28.963Z,15468
2019-06-20T06:58:09.435Z,16352
2019-06-20T06:59:30.424Z,17024
2019-06-20T07:00:10.913Z,12764
2019-06-20T07:00:51.343Z,8704
2019-06-20T07:07:36.165Z,23872
2019-06-20T07:08:16.670Z,20672
2019-06-20T07:09:37.595Z,19040
2019-06-20T07:10:18.088Z,17184
2019-06-20T07:10:58.585Z,19968
2019-06-20T07:11:39.038Z,25440
2019-06-20T07:12:19.527Z,31936
2019-06-20T07:13:00.002Z,16544
2019-06-20T07:13:40.854Z,7824
2019-06-20T07:14:23.206Z,9560
2019-06-20T07:16:26.480Z,11916
2019-06-20T07:17:06.955Z,13428
2019-06-20T07:17:47.475Z,13424
2019-06-20T07:18:29.558Z,13808
2019-06-20T07:19:10.058Z,15016
2019-06-20T07:19:50.650Z,9372
2019-06-20T07:20:31.174Z,5420
2019-06-20T07:23:17.934Z,5876
2019-06-20T07:23:58.389Z,5552
2019-06-20T07:24:38.846Z,5196
2019-06-20T07:25:19.362Z,4684
2019-06-20T07:27:26.653Z,6044
2019-06-20T07:28:07.179Z,5656
2019-06-20T07:28:47.648Z,4812
2019-06-20T07:29:30.135Z,4100
2019-06-20T07:30:11.010Z,3308
2019-06-20T07:30:51.961Z,2856
2019-06-20T07:33:36.193Z,3892
2019-06-20T07:34:16.490Z,4004
2019-06-20T07:34:56.960Z,4288
2019-06-20T07:35:41.708Z,4620
2019-06-20T07:36:19.138Z,4804
2019-06-20T07:37:00.575Z,3808
2019-06-20T07:41:06.274Z,4720
2019-06-20T07:41:48.266Z,5552
2019-06-20T07:46:09.547Z,4980
2019-06-20T07:46:53.944Z,5116
2019-06-20T07:47:37.098Z,5380
2019-06-20T07:48:17.252Z,5572
2019-06-20T07:49:38.364Z,5912
2019-06-20T07:50:20.575Z,5864
2019-06-20T07:51:01.915Z,6004
2019-06-20T07:51:46.919Z,6392
2019-06-20T07:53:08.140Z,7188
2019-06-20T07:53:48.637Z,7412
2019-06-20T07:54:31.602Z,7004
2019-06-20T07:55:12.103Z,6620
2019-06-20T07:55:54.910Z,6424
2019-06-20T07:58:41.460Z,6168
2019-06-20T07:59:24.260Z,6364
2019-06-20T08:04:48.136Z,4120
2019-06-20T08:05:28.650Z,4164
2019-06-20T08:06:10.955Z,3996
2019-06-20T08:07:03.111Z,3780
2019-06-20T08:09:07.851Z,3144
2019-06-20T08:09:50.184Z,3048
2019-06-20T08:13:59.523Z,2724
2019-06-20T08:14:42.546Z,2924
2019-06-20T08:15:23.019Z,3244
2019-06-20T08:16:49.063Z,4028
2019-06-20T08:17:35.049Z,4268
2019-06-20T08:18:50.472Z,4864
2019-06-20T08:19:30.963Z,4292
2019-06-20T08:20:11.431Z,4216
2019-06-20T08:20:51.907Z,4000
2019-06-20T08:21:32.381Z,4284
2019-06-20T08:22:12.878Z,4404
2019-06-20T08:26:58.698Z,4240
2019-06-20T08:27:38.303Z,4524
2019-06-20T08:28:18.805Z,4292
2019-06-20T08:29:11.394Z,4256
2019-06-20T08:29:39.751Z,4208
2019-06-20T08:30:20.229Z,4176
2019-06-20T08:31:02.539Z,4112
2019-06-20T08:31:42.338Z,3988
2019-06-20T08:32:24.656Z,3944
2019-06-20T08:35:47.926Z,3736
2019-06-20T08:36:28.492Z,3740
2019-06-20T08:37:11.896Z,3724
2019-06-20T08:43:18.050Z,3352
2019-06-20T08:44:01.744Z,3528
2019-06-20T08:44:41.815Z,3512
2019-06-20T08:45:22.290Z,3408
2019-06-20T08:46:04.191Z,3360
2019-06-20T08:52:08.312Z,3772
2019-06-20T08:52:48.773Z,3864
2019-06-20T08:53:29.280Z,4028
2019-06-20T08:54:09.670Z,4084
2019-06-20T08:56:22.746Z,2904
2019-06-20T08:57:04.043Z,2616
2019-06-20T08:57:43.636Z,2500
2019-06-20T08:58:24.146Z,2304
2019-06-20T08:59:04.842Z,2216
2019-06-20T08:59:45.099Z,2156
2019-06-20T09:00:25.626Z,2252
2019-06-20T09:01:46.891Z,2304
2019-06-20T09:02:27.297Z,2572
2019-06-20T09:03:07.773Z,2476
2019-06-20T09:07:58.623Z,3100
2019-06-20T09:10:04.245Z,2888
2019-06-20T09:10:44.154Z,2732
2019-06-20T09:11:24.413Z,2736
2019-06-20T09:12:46.474Z,2784
2019-06-20T09:13:26.892Z,2924
2019-06-20T09:14:07.383Z,3148
2019-06-20T09:19:34.467Z,4332
2019-06-20T09:20:14.102Z,4256
2019-06-20T09:20:55.858Z,4224
2019-06-20T09:21:35.025Z,4436
2019-06-20T09:22:15.689Z,4672
2019-06-20T09:22:56.738Z,4640
2019-06-20T09:23:36.537Z,4420
2019-06-20T09:24:17.016Z,4308
2019-06-20T09:24:58.465Z,4192
2019-06-20T09:27:04.285Z,4428
2019-06-20T09:27:44.534Z,4616
2019-06-20T09:28:24.997Z,4972
2019-06-20T09:29:05.452Z,4808
2019-06-20T09:29:45.935Z,4708
2019-06-20T09:30:26.423Z,4428
2019-06-20T09:31:06.936Z,4124
2019-06-20T09:31:48.827Z,4152
2019-06-20T09:33:13.183Z,3744
2019-06-20T09:34:00.675Z,3332
2019-06-20T09:34:37.837Z,3112
2019-06-20T09:37:22.799Z,2536
2019-06-20T09:38:03.490Z,2612
2019-06-20T09:38:45.583Z,2696
2019-06-20T09:39:26.992Z,2576
2019-06-20T09:40:07.488Z,2440
2019-06-20T09:44:54.285Z,2716
2019-06-20T09:45:35.719Z,3068
2019-06-20T09:46:16.202Z,3416
2019-06-20T09:46:58.098Z,3668
2019-06-20T09:47:37.427Z,3796
2019-06-20T09:54:22.488Z,4052
2019-06-20T09:55:02.946Z,4032
2019-06-20T09:55:43.486Z,4028
2019-06-20T09:56:23.935Z,3996
2019-06-20T09:57:04.486Z,3800
2019-06-20T09:57:44.935Z,3740
2019-06-20T09:58:26.706Z,3728
2019-06-20T09:59:07.161Z,3676
2019-06-20T09:59:56.905Z,3576
2019-06-20T10:01:53.443Z,3428
2019-06-20T10:02:33.124Z,3312
2019-06-20T10:03:15.742Z,3164
2019-06-20T10:10:56.290Z,3260
2019-06-20T10:11:35.450Z,3204
2019-06-20T10:12:15.913Z,3156
2019-06-20T10:12:57.317Z,3112
2019-06-20T10:13:37.891Z,2976
2019-06-20T10:14:18.214Z,2808
2019-06-20T10:19:03.174Z,2880
2019-06-20T10:19:43.656Z,2924
2019-06-20T10:20:24.143Z,2980
2019-06-20T10:21:04.582Z,3124
2019-06-20T10:21:46.179Z,3240
2019-06-20T10:22:25.550Z,3288
2019-06-20T10:23:06.044Z,3284
2019-06-20T10:23:47.664Z,3340
2019-06-20T10:24:27.019Z,3484
2019-06-20T10:25:09.012Z,3284
2019-06-20T10:28:45.881Z,3276
2019-06-20T10:29:25.217Z,3288
2019-06-20T11:08:27.993Z,2892
2019-06-20T11:09:08.537Z,2764
2019-06-20T11:09:49.465Z,2688
2019-06-20T11:10:29.493Z,2460
2019-06-20T11:11:09.953Z,2592
2019-06-20T11:11:50.418Z,2644
2019-06-20T11:12:42.523Z,2736
2019-06-20T11:13:11.326Z,2792
2019-06-20T11:13:51.763Z,2684
2019-06-20T11:14:32.259Z,2436
2019-06-20T11:19:57.981Z,2744
2019-06-20T11:20:39.437Z,2416
2019-06-20T11:21:18.931Z,2508
2019-06-20T11:21:59.592Z,2444
2019-06-20T11:22:41.523Z,2284
2019-06-20T11:23:20.713Z,2168
2019-06-20T11:24:01.194Z,2260
2019-06-20T11:24:42.919Z,2984
2019-06-20T11:25:22.158Z,3056
2019-06-20T11:26:08.041Z,2888
2019-06-20T11:26:49.532Z,2680
2019-06-20T11:27:29.975Z,2612
2019-06-20T11:28:10.579Z,2512
2019-06-20T11:28:52.410Z,2748
2019-06-20T11:29:31.611Z,2608
2019-06-20T11:30:12.686Z,2536
2019-06-20T11:32:17.936Z,1956
2019-06-20T11:32:58.402Z,1988
2019-06-20T11:33:42.083Z,1988
2019-06-20T11:34:22.767Z,2464
2019-06-20T11:39:07.699Z,2152
2019-06-20T11:39:51.165Z,2184
2019-06-20T11:40:28.671Z,2196
2019-06-20T11:41:11.149Z,2240
2019-06-20T11:41:51.417Z,2360
2019-06-20T11:42:31.766Z,2428
2019-06-20T11:43:12.498Z,2460
2019-06-20T11:47:57.803Z,2508
2019-06-20T11:48:38.485Z,2424
2019-06-20T11:49:19.368Z,2480
2019-06-20T11:49:59.881Z,2532
2019-06-20T11:50:40.395Z,2528
2019-06-20T11:51:20.792Z,2452
2019-06-20T11:52:01.286Z,2344
2019-06-20T11:52:44.251Z,2304
2019-06-20T11:53:22.266Z,2412
2019-06-20T11:54:02.716Z,2508
2019-06-20T11:56:47.780Z,2652
2019-06-20T11:57:28.248Z,2616
2019-06-20T11:58:08.769Z,2624
2019-06-20T11:58:49.166Z,2516
2019-06-20T11:59:29.683Z,2340
2019-06-20T12:00:10.182Z,2188
2019-06-20T12:01:02.932Z,2060
2019-06-20T12:01:33.047Z,1996
2019-06-20T12:02:13.609Z,1960
2019-06-20T12:04:21.326Z,2168
2019-06-20T12:05:02.825Z,2244
2019-06-20T12:08:42.361Z,2488
2019-06-20T12:09:22.254Z,2580
2019-06-20T12:10:02.727Z,2608
2019-06-20T12:12:49.272Z,2140
2019-06-20T12:13:29.476Z,2004
2019-06-20T12:14:12.269Z,1884
2019-06-20T12:14:52.155Z,1796
2019-06-20T12:15:32.683Z,1772
2019-06-20T12:24:32.715Z,1048
2019-06-20T12:25:13.104Z,928
2019-06-20T12:25:53.549Z,820
2019-06-20T12:26:34.135Z,728
2019-06-20T12:27:15.704Z,664
2019-06-20T12:27:56.245Z,608
2019-06-20T12:28:40.456Z,556
2019-06-20T12:32:42.512Z,480
2019-06-20T12:33:23.256Z,492
2019-06-20T12:34:03.458Z,500
2019-06-20T12:34:44.532Z,508
2019-06-20T12:35:24.525Z,512
2019-06-20T12:36:05.301Z,512
2019-06-20T12:36:46.610Z,484
2019-06-20T12:38:54.442Z,380
2019-06-20T12:39:35.118Z,364
2019-06-20T12:40:15.633Z,352
2019-06-20T12:40:56.104Z,344
2019-06-20T12:41:36.583Z,344
2019-06-20T12:42:17.139Z,336
2019-06-20T12:45:44.755Z,308
2019-06-20T12:46:29.337Z,304
2019-06-20T12:48:33.248Z,304
2019-06-20T12:49:14.021Z,304
2019-06-20T12:49:54.405Z,316
2019-06-20T12:50:34.883Z,328
2019-06-20T12:51:15.478Z,344
2019-06-20T12:51:56.002Z,364
2019-06-20T12:52:39.349Z,384
2019-06-20T12:55:28.833Z,484
2019-06-20T12:57:59.922Z,584
2019-06-20T12:58:40.685Z,604
2019-06-20T12:59:22.449Z,624
2019-06-20T13:00:03.283Z,648
2019-06-20T13:00:44.850Z,668
2019-06-20T13:01:35.018Z,688
2019-06-20T13:02:04.727Z,712
2019-06-20T13:08:50.480Z,848
2019-06-20T13:09:30.994Z,864
2019-06-20T13:10:13.915Z,896
2019-06-20T13:10:54.560Z,928
2019-06-20T13:15:42.206Z,976
2019-06-20T13:16:21.662Z,1012
2019-06-20T13:17:03.756Z,1084
2019-06-20T13:17:50.849Z,1156
2019-06-20T13:18:31.324Z,1236
2019-06-20T13:19:15.238Z,1348
2019-06-20T13:23:59.917Z,1712
2019-06-20T13:24:41.021Z,1724
2019-06-20T13:25:21.795Z,1748
2019-06-20T13:26:02.567Z,1760
2019-06-20T13:26:44.009Z,1760
2019-06-20T13:29:03.125Z,1688
2019-06-20T13:29:32.312Z,1616
2019-06-20T13:30:12.920Z,1540
2019-06-20T13:30:59.431Z,1480
2019-06-20T13:33:40.823Z,1332
2019-06-20T13:34:19.912Z,1332
2019-06-20T13:35:00.349Z,1340
2019-06-20T13:35:42.254Z,1332
2019-06-20T13:36:21.927Z,1300
2019-06-20T13:37:02.428Z,1244
2019-06-20T13:43:47.531Z,872
2019-06-20T13:44:28.907Z,848
2019-06-20T13:45:13.152Z,852
2019-06-20T13:45:50.248Z,892
2019-06-20T13:46:30.839Z,908
2019-06-20T13:47:11.364Z,916
2019-06-20T13:47:51.843Z,896
2019-06-20T13:48:32.343Z,868
2019-06-20T13:51:17.706Z,896
2019-06-20T13:51:58.408Z,928
2019-06-20T13:52:41.739Z,940
2019-06-20T13:53:19.425Z,948
2019-06-20T13:54:00.013Z,956
2019-06-20T13:54:41.619Z,964
2019-06-20T13:55:21.003Z,972
2019-06-20T13:56:01.552Z,988
2019-06-20T13:56:42.256Z,1012
2019-06-20T13:57:22.518Z,1028
2019-06-20T14:01:27.177Z,732
2019-06-20T14:02:07.654Z,772
2019-06-20T14:02:48.902Z,828
2019-06-20T14:03:28.633Z,900
2019-06-20T14:04:11.677Z,976
2019-06-20T14:10:54.433Z,1708
2019-06-20T14:11:32.834Z,1780
2019-06-20T14:12:13.332Z,1852
2019-06-20T14:12:53.863Z,1964
2019-06-20T14:13:40.172Z,2028
2019-06-20T14:14:25.072Z,2100
2019-06-20T14:15:05.600Z,2128
2019-06-20T14:15:46.243Z,2052
2019-06-20T14:16:26.754Z,1828
2019-06-20T14:17:07.366Z,1732
2019-06-20T14:17:49.399Z,1716
2019-06-20T14:18:28.418Z,1756
2019-06-20T14:19:10.506Z,1896
2019-06-20T14:24:35.736Z,1964
2019-06-20T14:25:16.375Z,1932
2019-06-20T14:25:57.788Z,1872
2019-06-20T14:26:38.289Z,1824
2019-06-20T14:27:19.690Z,1784
2019-06-20T14:28:00.200Z,1768
2019-06-20T14:32:47.137Z,1708
2019-06-20T14:33:26.049Z,1688
2019-06-20T14:34:07.005Z,1664
2019-06-20T14:34:47.311Z,1632
2019-06-20T14:35:27.698Z,1628
2019-06-20T14:36:08.300Z,1640
2019-06-20T14:36:50.494Z,1640
2019-06-20T14:37:29.175Z,1656
2019-06-20T14:38:10.723Z,1708
2019-06-20T14:40:55.400Z,1840
2019-06-20T14:41:35.930Z,1812
2019-06-20T14:42:16.405Z,1800
2019-06-20T14:42:56.832Z,1788
2019-06-20T14:43:37.707Z,1768
2019-06-20T14:44:18.994Z,1740
2019-06-20T14:45:00.150Z,1720
2019-06-20T14:51:05.604Z,1688
2019-06-20T14:51:47.079Z,1652
2019-06-20T14:52:26.633Z,1620
2019-06-20T14:53:07.049Z,1584
2019-06-20T14:53:54.513Z,1544
2019-06-20T14:56:36.837Z,1492
2019-06-20T14:57:18.120Z,1504
2019-06-20T14:58:00.028Z,1520
2019-06-20T14:58:40.448Z,1576
2019-06-20T15:02:08.332Z,1668
2019-06-20T15:02:52.938Z,1712
2019-06-20T15:03:30.862Z,1828
2019-06-20T15:06:17.268Z,1892
2019-06-20T15:06:58.115Z,2196
2019-06-20T15:07:38.562Z,2036
2019-06-20T15:08:19.369Z,2088
2019-06-20T15:12:26.134Z,2304
2019-06-20T15:13:09.626Z,2168
2019-06-20T15:13:51.202Z,2100
2019-06-20T15:17:16.473Z,2068
2019-06-20T15:17:58.008Z,2108
2019-06-20T15:18:36.569Z,2068
2019-06-20T15:19:18.822Z,1852
2019-06-20T15:19:59.268Z,1768
2019-06-20T15:20:39.721Z,1728
2019-06-20T15:21:20.470Z,1712
2019-06-20T15:24:48.437Z,1860
2019-06-20T15:25:25.904Z,1864
2019-06-20T15:26:08.339Z,1836
2019-06-20T15:26:49.452Z,1832
2019-06-20T15:27:29.606Z,1808
2019-06-20T15:31:36.285Z,1892
2019-06-20T15:32:18.165Z,1992
2019-06-20T15:33:09.239Z,1936
2019-06-20T15:33:40.640Z,2088
2019-06-20T15:37:06.402Z,1680
2019-06-20T15:37:46.540Z,1620
2019-06-20T15:38:27.741Z,1620
2019-06-20T15:39:08.618Z,1608
2019-06-20T15:39:50.209Z,1556
2019-06-20T15:40:29.610Z,1536
2019-06-20T15:41:14.205Z,1588
2019-06-20T15:43:15.821Z,1620
2019-06-20T15:45:28.994Z,1560
2019-06-20T15:46:10.407Z,1508
2019-06-20T15:46:50.222Z,1468
2019-06-20T15:47:30.782Z,1452
2019-06-20T15:48:11.329Z,1444
2019-06-20T15:48:51.796Z,1424
2019-06-20T15:49:32.309Z,1392
2019-06-20T15:50:12.791Z,1360
2019-06-20T15:52:59.526Z,1272
2019-06-20T15:53:39.939Z,1260
2019-06-20T15:54:20.478Z,1260
2019-06-20T15:55:03.571Z,1232
2019-06-20T15:58:29.200Z,1164
2019-06-20T15:59:09.801Z,1136
2019-06-20T15:59:52.167Z,1112
2019-06-20T16:00:35.035Z,1088
2019-06-20T16:05:18.931Z,1104
2019-06-20T16:05:59.460Z,1144
2019-06-20T16:06:41.285Z,1292
2019-06-20T16:07:21.926Z,1340
2019-06-20T16:08:02.597Z,1332
2019-06-20T16:08:43.095Z,1332
2019-06-20T16:09:23.577Z,1316
2019-06-20T16:10:49.428Z,1208
2019-06-20T16:12:10.938Z,1136
2019-06-20T16:12:51.446Z,1124
2019-06-20T16:13:35.409Z,1252
2019-06-20T16:15:38.939Z,1348
2019-06-20T16:16:20.074Z,1280
2019-06-20T16:18:42.033Z,1288
2019-06-20T16:19:24.751Z,1252
2019-06-20T16:20:05.330Z,1188
2019-06-20T16:20:45.824Z,1204
2019-06-20T16:24:51.166Z,1300
2019-06-20T16:25:33.038Z,1348
2019-06-20T16:26:15.481Z,1320
2019-06-20T17:11:42.007Z,708
2019-06-20T17:12:22.426Z,692
2019-06-20T17:13:02.985Z,680
2019-06-20T17:13:43.422Z,680
2019-06-20T17:14:23.906Z,668
2019-06-20T17:15:04.363Z,648
2019-06-20T17:15:44.788Z,636
2019-06-20T17:16:25.369Z,628
2019-06-20T17:17:05.867Z,620
2019-06-20T17:17:46.357Z,620
2019-06-20T17:18:26.839Z,620
2019-06-20T17:25:52.163Z,616
2019-06-20T17:26:33.264Z,620
2019-06-20T17:27:14.173Z,604
2019-06-20T17:27:56.643Z,620
2019-06-20T17:33:22.291Z,644
2019-06-20T17:34:02.790Z,640
2019-06-20T17:34:43.258Z,624
2019-06-20T17:35:24.060Z,608
2019-06-20T17:36:17.143Z,600
2019-06-20T17:36:45.129Z,592
2019-06-20T17:37:25.683Z,612
2019-06-20T17:38:06.839Z,608
2019-06-20T17:41:32.422Z,628
2019-06-20T17:42:13.756Z,624
2019-06-20T17:42:54.934Z,620
2019-06-20T17:43:37.483Z,616
2019-06-20T17:45:44.057Z,604
2019-06-20T17:46:28.256Z,588
2019-06-20T17:50:34.040Z,556
2019-06-20T17:51:15.705Z,552
2019-06-20T17:51:58.167Z,548
2019-06-20T17:52:41.868Z,548
2019-06-20T17:54:06.927Z,540
2019-06-20T17:56:12.134Z,508
2019-06-20T17:56:52.975Z,500
2019-06-20T17:57:34.581Z,492
2019-06-20T17:58:16.067Z,488
2019-06-20T17:59:00.844Z,492
2019-06-20T18:00:23.495Z,492
2019-06-20T18:01:04.875Z,488
2019-06-20T18:01:45.368Z,488
2019-06-20T18:02:26.075Z,488
2019-06-20T18:03:06.548Z,492
2019-06-20T18:03:51.619Z,496
2019-06-20T18:04:32.211Z,500
2019-06-20T18:05:13.539Z,492
2019-06-20T18:06:00.229Z,496
2019-06-20T18:09:21.784Z,472
2019-06-20T18:10:02.339Z,472
2019-06-20T18:10:43.092Z,472
2019-06-20T18:11:23.539Z,476
2019-06-20T18:12:04.292Z,480
2019-06-20T18:12:44.665Z,476
2019-06-20T18:13:26.195Z,468
2019-06-20T18:15:33.886Z,460
2019-06-20T18:16:24.441Z,460
2019-06-20T18:16:53.707Z,472
2019-06-20T18:17:36.237Z,464
2019-06-20T18:18:16.855Z,460
2019-06-20T18:18:57.120Z,456
2019-06-20T18:20:23.162Z,448
2019-06-20T18:26:25.525Z,412
2019-06-20T18:27:05.995Z,404
2019-06-20T18:27:46.917Z,392
2019-06-20T18:28:31.333Z,380
2019-06-20T18:31:15.846Z,348
2019-06-20T18:31:56.532Z,336
2019-06-20T18:32:37.133Z,340
2019-06-20T18:33:19.698Z,340
2019-06-20T18:34:40.905Z,348
2019-06-20T18:38:08.888Z,312
2019-06-20T18:38:51.351Z,292
2019-06-20T18:43:36.771Z,204
2019-06-20T18:44:17.293Z,220
2019-06-20T18:44:58.406Z,232
2019-06-20T18:45:38.914Z,236
2019-06-20T18:46:19.352Z,264
2019-06-20T18:46:59.824Z,300
2019-06-20T18:47:40.390Z,316
2019-06-20T18:48:20.988Z,328
2019-06-20T18:55:07.001Z,356
2019-06-20T18:55:47.504Z,352
2019-06-20T18:56:28.942Z,352
2019-06-20T18:57:09.491Z,344
2019-06-20T18:57:50.967Z,336
2019-06-20T19:02:30.593Z,288
2019-06-20T19:03:11.101Z,276
2019-06-20T19:03:52.297Z,268
2019-06-20T19:04:44.967Z,256
2019-06-20T19:05:13.233Z,252
2019-06-20T19:05:53.745Z,244
2019-06-20T19:06:36.153Z,240
2019-06-20T19:07:14.594Z,236
2019-06-20T19:07:55.120Z,224
2019-06-20T19:08:35.650Z,220
2019-06-20T19:13:20.824Z,168
2019-06-20T19:14:04.460Z,160
2019-06-20T19:14:44.795Z,156
2019-06-20T19:15:25.339Z,152
2019-06-20T19:16:05.798Z,148
2019-06-20T19:19:31.494Z,116
2019-06-20T19:20:12.057Z,104
2019-06-20T19:20:54.179Z,96
2019-06-20T19:21:34.656Z,92
2019-06-20T19:22:15.072Z,88